sensor_id;sensor_type;location;lat;lon;timestamp;pressure;altitude;pressure_sealevel;temperature;humidity
61086;BME280;46967;48.876;2.136;2023-02-28T00:00:42;102520.38;;;1.83;62.66
61086;BME280;46967;48.876;2.136;2023-02-28T00:03:08;102523.72;;;1.80;62.70
61086;BME280;46967;48.876;2.136;2023-02-28T00:05:33;102517.78;;;1.81;62.57
61086;BME280;46967;48.876;2.136;2023-02-28T00:07:59;102527.06;;;1.78;62.66
61086;BME280;46967;48.876;2.136;2023-02-28T00:10:27;102518.38;;;1.74;62.93
61086;BME280;46967;48.876;2.136;2023-02-28T00:12:55;102514.69;;;1.66;63.40
61086;BME280;46967;48.876;2.136;2023-02-28T00:15:22;102522.44;;;1.68;63.55
61086;BME280;46967;48.876;2.136;2023-02-28T00:17:48;102518.16;;;1.67;63.44
61086;BME280;46967;48.876;2.136;2023-02-28T00:20:13;102523.34;;;1.70;63.54
61086;BME280;46967;48.876;2.136;2023-02-28T00:22:41;102526.25;;;1.55;63.96
61086;BME280;46967;48.876;2.136;2023-02-28T00:25:07;102533.81;;;1.52;63.97
61086;BME280;46967;48.876;2.136;2023-02-28T00:27:34;102533.06;;;1.54;63.91
61086;BME280;46967;48.876;2.136;2023-02-28T00:30:00;102527.16;;;1.57;63.83
61086;BME280;46967;48.876;2.136;2023-02-28T00:32:26;102533.19;;;1.57;63.84
61086;BME280;46967;48.876;2.136;2023-02-28T00:34:51;102536.69;;;1.61;63.71
61086;BME280;46967;48.876;2.136;2023-02-28T00:37:17;102541.66;;;1.56;63.77
61086;BME280;46967;48.876;2.136;2023-02-28T00:39:42;102546.03;;;1.59;63.69
61086;BME280;46967;48.876;2.136;2023-02-28T00:42:08;102540.91;;;1.59;63.81
61086;BME280;46967;48.876;2.136;2023-02-28T00:44:34;102542.91;;;1.68;63.60
61086;BME280;46967;48.876;2.136;2023-02-28T00:46:59;102539.31;;;1.62;63.76
61086;BME280;46967;48.876;2.136;2023-02-28T00:49:26;102541.72;;;1.58;63.57
61086;BME280;46967;48.876;2.136;2023-02-28T00:51:52;102544.44;;;1.62;63.56
61086;BME280;46967;48.876;2.136;2023-02-28T00:54:18;102538.47;;;1.62;63.50
61086;BME280;46967;48.876;2.136;2023-02-28T00:56:44;102541.00;;;1.62;63.43
61086;BME280;46967;48.876;2.136;2023-02-28T00:59:11;102546.03;;;1.59;63.33
61086;BME280;46967;48.876;2.136;2023-02-28T01:01:37;102551.31;;;1.63;63.23
61086;BME280;46967;48.876;2.136;2023-02-28T01:04:02;102551.16;;;1.59;63.28
61086;BME280;46967;48.876;2.136;2023-02-28T01:06:28;102549.16;;;1.52;63.27
61086;BME280;46967;48.876;2.136;2023-02-28T01:08:53;102550.94;;;1.53;63.40
61086;BME280;46967;48.876;2.136;2023-02-28T01:11:18;102548.38;;;1.53;63.26
61086;BME280;46967;48.876;2.136;2023-02-28T01:13:45;102546.66;;;1.53;63.21
61086;BME280;46967;48.876;2.136;2023-02-28T01:16:10;102545.88;;;1.54;63.22
61086;BME280;46967;48.876;2.136;2023-02-28T01:18:37;102555.88;;;1.48;63.31
61086;BME280;46967;48.876;2.136;2023-02-28T01:21:04;102559.19;;;1.45;63.38
61086;BME280;46967;48.876;2.136;2023-02-28T01:23:30;102561.84;;;1.49;63.48
61086;BME280;46967;48.876;2.136;2023-02-28T01:25:55;102557.63;;;1.49;63.68
61086;BME280;46967;48.876;2.136;2023-02-28T01:28:21;102556.78;;;1.50;63.55
61086;BME280;46967;48.876;2.136;2023-02-28T01:30:50;102567.03;;;1.50;63.31
61086;BME280;46967;48.876;2.136;2023-02-28T01:33:15;102561.09;;;1.51;63.32
61086;BME280;46967;48.876;2.136;2023-02-28T01:35:41;102558.56;;;1.51;63.16
61086;BME280;46967;48.876;2.136;2023-02-28T01:38:06;102555.22;;;1.54;62.92
61086;BME280;46967;48.876;2.136;2023-02-28T01:40:32;102554.28;;;1.52;63.20
61086;BME280;46967;48.876;2.136;2023-02-28T01:42:57;102555.03;;;1.48;63.13
61086;BME280;46967;48.876;2.136;2023-02-28T01:45:27;102552.34;;;1.44;62.93
61086;BME280;46967;48.876;2.136;2023-02-28T01:47:57;102550.59;;;1.43;62.81
61086;BME280;46967;48.876;2.136;2023-02-28T01:50:27;102545.25;;;1.37;62.82
61086;BME280;46967;48.876;2.136;2023-02-28T01:52:56;102537.41;;;1.33;63.03
61086;BME280;46967;48.876;2.136;2023-02-28T01:55:24;102543.38;;;1.32;62.89
61086;BME280;46967;48.876;2.136;2023-02-28T01:57:56;102542.41;;;1.30;62.72
61086;BME280;46967;48.876;2.136;2023-02-28T02:00:25;102545.69;;;1.25;62.92
61086;BME280;46967;48.876;2.136;2023-02-28T02:02:55;102542.97;;;1.21;62.78
61086;BME280;46967;48.876;2.136;2023-02-28T02:05:24;102546.34;;;1.20;63.17
61086;BME280;46967;48.876;2.136;2023-02-28T02:08:09;102548.88;;;1.20;63.14
61086;BME280;46967;48.876;2.136;2023-02-28T02:10:41;102542.91;;;1.19;63.45
61086;BME280;46967;48.876;2.136;2023-02-28T02:18:52;102540.75;;;1.07;63.78
61086;BME280;46967;48.876;2.136;2023-02-28T02:37:47;102528.41;;;0.73;65.17
61086;BME280;46967;48.876;2.136;2023-02-28T02:40:19;102530.53;;;0.62;65.63
61086;BME280;46967;48.876;2.136;2023-02-28T02:42:47;102526.97;;;0.59;65.90
61086;BME280;46967;48.876;2.136;2023-02-28T02:48:10;102529.44;;;0.56;66.14
61086;BME280;46967;48.876;2.136;2023-02-28T02:50:41;102530.88;;;0.49;66.58
61086;BME280;46967;48.876;2.136;2023-02-28T02:53:09;102532.63;;;0.50;66.49
61086;BME280;46967;48.876;2.136;2023-02-28T02:55:40;102533.34;;;0.47;66.92
61086;BME280;46967;48.876;2.136;2023-02-28T02:58:18;102527.25;;;0.44;67.01
61086;BME280;46967;48.876;2.136;2023-02-28T03:00:51;102529.56;;;0.38;67.18
61086;BME280;46967;48.876;2.136;2023-02-28T03:03:19;102530.34;;;0.35;67.27
61086;BME280;46967;48.876;2.136;2023-02-28T03:05:55;102528.53;;;0.32;67.45
61086;BME280;46967;48.876;2.136;2023-02-28T03:08:22;102532.00;;;0.34;67.44
61086;BME280;46967;48.876;2.136;2023-02-28T03:10:52;102533.63;;;0.32;67.39
61086;BME280;46967;48.876;2.136;2023-02-28T03:17:00;102532.47;;;0.24;67.51
61086;BME280;46967;48.876;2.136;2023-02-28T03:19:51;102536.69;;;0.24;67.71
61086;BME280;46967;48.876;2.136;2023-02-28T03:25:07;102532.34;;;0.21;67.85
61086;BME280;46967;48.876;2.136;2023-02-28T03:27:52;102539.69;;;0.13;68.16
61086;BME280;46967;48.876;2.136;2023-02-28T03:33:00;102544.41;;;0.04;68.58
61086;BME280;46967;48.876;2.136;2023-02-28T03:35:32;102540.53;;;-0.07;68.99
61086;BME280;46967;48.876;2.136;2023-02-28T03:38:08;102536.28;;;-0.07;68.99
61086;BME280;46967;48.876;2.136;2023-02-28T03:40:42;102535.38;;;-0.09;68.97
61086;BME280;46967;48.876;2.136;2023-02-28T03:43:14;102526.91;;;-0.08;69.08
61086;BME280;46967;48.876;2.136;2023-02-28T03:45:43;102540.34;;;-0.12;69.20
61086;BME280;46967;48.876;2.136;2023-02-28T03:48:16;102543.81;;;-0.10;69.17
61086;BME280;46967;48.876;2.136;2023-02-28T03:50:46;102544.38;;;-0.17;69.35
61086;BME280;46967;48.876;2.136;2023-02-28T03:53:25;102539.34;;;-0.15;69.57
61086;BME280;46967;48.876;2.136;2023-02-28T03:58:31;102542.63;;;-0.18;70.09
61086;BME280;46967;48.876;2.136;2023-02-28T04:01:28;102546.63;;;-0.25;69.78
61086;BME280;46967;48.876;2.136;2023-02-28T04:03:55;102539.88;;;-0.23;69.63
61086;BME280;46967;48.876;2.136;2023-02-28T04:06:22;102548.56;;;-0.39;70.53
61086;BME280;46967;48.876;2.136;2023-02-28T04:08:49;102541.59;;;-0.43;70.43
61086;BME280;46967;48.876;2.136;2023-02-28T04:13:39;102549.03;;;-0.67;71.65
61086;BME280;46967;48.876;2.136;2023-02-28T04:16:08;102552.78;;;-0.78;71.97
61086;BME280;46967;48.876;2.136;2023-02-28T04:18:39;102558.81;;;-0.96;72.54
61086;BME280;46967;48.876;2.136;2023-02-28T04:21:05;102559.28;;;-0.85;72.09
61086;BME280;46967;48.876;2.136;2023-02-28T04:23:31;102556.94;;;-0.80;71.91
61086;BME280;46967;48.876;2.136;2023-02-28T04:25:57;102556.31;;;-0.76;71.92
61086;BME280;46967;48.876;2.136;2023-02-28T04:28:22;102561.41;;;-0.76;71.64
61086;BME280;46967;48.876;2.136;2023-02-28T04:30:53;102561.44;;;-0.75;71.60
61086;BME280;46967;48.876;2.136;2023-02-28T04:33:18;102562.69;;;-0.66;71.32
61086;BME280;46967;48.876;2.136;2023-02-28T04:35:44;102563.41;;;-0.69;71.38
61086;BME280;46967;48.876;2.136;2023-02-28T04:38:09;102558.50;;;-0.64;71.13
61086;BME280;46967;48.876;2.136;2023-02-28T04:40:35;102564.81;;;-0.56;70.59
61086;BME280;46967;48.876;2.136;2023-02-28T04:43:00;102572.13;;;-0.64;71.18
61086;BME280;46967;48.876;2.136;2023-02-28T04:45:26;102566.38;;;-0.60;70.88
61086;BME280;46967;48.876;2.136;2023-02-28T04:47:55;102574.59;;;-0.65;71.15
61086;BME280;46967;48.876;2.136;2023-02-28T04:50:20;102571.13;;;-0.67;71.18
61086;BME280;46967;48.876;2.136;2023-02-28T04:52:45;102576.94;;;-0.70;71.58
61086;BME280;46967;48.876;2.136;2023-02-28T04:55:11;102582.53;;;-0.59;70.85
61086;BME280;46967;48.876;2.136;2023-02-28T04:57:36;102582.66;;;-0.56;70.56
61086;BME280;46967;48.876;2.136;2023-02-28T05:00:02;102576.72;;;-0.57;70.61
61086;BME280;46967;48.876;2.136;2023-02-28T05:02:34;102584.44;;;-0.55;70.43
61086;BME280;46967;48.876;2.136;2023-02-28T05:04:59;102585.16;;;-0.58;70.66
61086;BME280;46967;48.876;2.136;2023-02-28T05:07:25;102587.84;;;-0.55;70.47
61086;BME280;46967;48.876;2.136;2023-02-28T05:09:50;102588.63;;;-0.56;70.44
61086;BME280;46967;48.876;2.136;2023-02-28T05:12:15;102588.63;;;-0.56;70.52
61086;BME280;46967;48.876;2.136;2023-02-28T05:14:41;102591.94;;;-0.58;70.47
61086;BME280;46967;48.876;2.136;2023-02-28T05:17:06;102591.94;;;-0.58;70.42
61086;BME280;46967;48.876;2.136;2023-02-28T05:19:31;102598.53;;;-0.81;72.04
61086;BME280;46967;48.876;2.136;2023-02-28T05:21:57;102600.13;;;-1.03;72.83
61086;BME280;46967;48.876;2.136;2023-02-28T05:24:22;102607.91;;;-1.00;72.78
61086;BME280;46967;48.876;2.136;2023-02-28T05:26:49;102611.53;;;-0.95;72.47
61086;BME280;46967;48.876;2.136;2023-02-28T05:29:16;102613.81;;;-1.01;72.75
61086;BME280;46967;48.876;2.136;2023-02-28T05:31:41;102611.09;;;-1.04;73.35
61086;BME280;46967;48.876;2.136;2023-02-28T05:34:06;102611.91;;;-1.05;73.31
61086;BME280;46967;48.876;2.136;2023-02-28T05:36:32;102622.56;;;-1.14;73.97
61086;BME280;46967;48.876;2.136;2023-02-28T05:38:57;102621.16;;;-1.07;73.51
61086;BME280;46967;48.876;2.136;2023-02-28T05:41:23;102618.41;;;-1.12;74.00
61086;BME280;46967;48.876;2.136;2023-02-28T05:43:48;102623.22;;;-1.00;73.29
61086;BME280;46967;48.876;2.136;2023-02-28T05:46:14;102613.41;;;-0.91;73.00
61086;BME280;46967;48.876;2.136;2023-02-28T05:48:41;102608.47;;;-0.87;72.79
61086;BME280;46967;48.876;2.136;2023-02-28T05:51:08;102611.00;;;-0.87;72.48
61086;BME280;46967;48.876;2.136;2023-02-28T05:53:34;102618.66;;;-0.87;72.45
61086;BME280;46967;48.876;2.136;2023-02-28T05:55:59;102619.56;;;-0.87;72.71
61086;BME280;46967;48.876;2.136;2023-02-28T05:58:25;102620.34;;;-0.88;72.48
61086;BME280;46967;48.876;2.136;2023-02-28T06:00:54;102615.03;;;-0.93;72.78
61086;BME280;46967;48.876;2.136;2023-02-28T06:03:19;102611.47;;;-0.96;72.83
61086;BME280;46967;48.876;2.136;2023-02-28T06:05:45;102632.66;;;-0.97;73.18
61086;BME280;46967;48.876;2.136;2023-02-28T06:08:10;102623.47;;;-0.94;73.22
61086;BME280;46967;48.876;2.136;2023-02-28T06:10:35;102634.19;;;-1.01;73.35
61086;BME280;46967;48.876;2.136;2023-02-28T06:13:02;102637.69;;;-0.99;73.33
61086;BME280;46967;48.876;2.136;2023-02-28T06:15:28;102633.63;;;-0.95;73.32
61086;BME280;46967;48.876;2.136;2023-02-28T06:17:53;102635.13;;;-0.99;73.13
61086;BME280;46967;48.876;2.136;2023-02-28T06:20:19;102632.38;;;-1.03;73.27
61086;BME280;46967;48.876;2.136;2023-02-28T06:22:44;102624.00;;;-1.01;73.31
61086;BME280;46967;48.876;2.136;2023-02-28T06:25:10;102631.50;;;-1.04;73.09
61086;BME280;46967;48.876;2.136;2023-02-28T06:27:35;102630.72;;;-1.03;73.48
61086;BME280;46967;48.876;2.136;2023-02-28T06:30:02;102633.34;;;-1.01;73.61
61086;BME280;46967;48.876;2.136;2023-02-28T06:32:28;102636.53;;;-1.05;73.77
61086;BME280;46967;48.876;2.136;2023-02-28T06:34:53;102637.38;;;-1.05;73.59
61086;BME280;46967;48.876;2.136;2023-02-28T06:37:19;102635.59;;;-1.07;73.33
61086;BME280;46967;48.876;2.136;2023-02-28T06:39:44;102633.81;;;-1.08;74.06
61086;BME280;46967;48.876;2.136;2023-02-28T06:42:10;102642.13;;;-1.13;74.92
61086;BME280;46967;48.876;2.136;2023-02-28T06:44:35;102632.91;;;-1.11;74.01
61086;BME280;46967;48.876;2.136;2023-02-28T06:47:02;102641.25;;;-1.13;74.49
61086;BME280;46967;48.876;2.136;2023-02-28T06:49:29;102635.44;;;-1.11;74.31
61086;BME280;46967;48.876;2.136;2023-02-28T06:51:54;102634.75;;;-1.06;74.18
61086;BME280;46967;48.876;2.136;2023-02-28T06:54:20;102629.75;;;-1.05;74.19
61086;BME280;46967;48.876;2.136;2023-02-28T06:56:45;102636.75;;;-1.01;74.29
61086;BME280;46967;48.876;2.136;2023-02-28T06:59:12;102638.72;;;-0.95;74.00
61086;BME280;46967;48.876;2.136;2023-02-28T07:01:37;102639.59;;;-0.95;73.73
61086;BME280;46967;48.876;2.136;2023-02-28T07:04:05;102639.59;;;-0.95;73.71
61086;BME280;46967;48.876;2.136;2023-02-28T07:06:31;102632.00;;;-0.93;73.81
61086;BME280;46967;48.876;2.136;2023-02-28T07:08:57;102636.44;;;-0.89;73.98
61086;BME280;46967;48.876;2.136;2023-02-28T07:11:23;102633.09;;;-0.88;73.89
61086;BME280;46967;48.876;2.136;2023-02-28T07:13:51;102632.44;;;-0.84;74.06
61086;BME280;46967;48.876;2.136;2023-02-28T07:16:17;102625.81;;;-0.80;73.68
61086;BME280;46967;48.876;2.136;2023-02-28T07:18:43;102633.38;;;-0.82;74.12
61086;BME280;46967;48.876;2.136;2023-02-28T07:21:10;102626.09;;;-0.74;73.97
61086;BME280;46967;48.876;2.136;2023-02-28T07:23:36;102630.91;;;-0.80;74.43
61086;BME280;46967;48.876;2.136;2023-02-28T07:26:03;102626.31;;;-0.69;74.45
61086;BME280;46967;48.876;2.136;2023-02-28T07:28:29;102629.19;;;-0.62;74.60
61086;BME280;46967;48.876;2.136;2023-02-28T07:30:54;102636.25;;;-0.56;74.10
61086;BME280;46967;48.876;2.136;2023-02-28T07:33:20;102641.75;;;-0.47;74.08
61086;BME280;46967;48.876;2.136;2023-02-28T07:35:45;102647.00;;;-0.44;74.19
61086;BME280;46967;48.876;2.136;2023-02-28T07:38:10;102642.75;;;-0.43;73.84
61086;BME280;46967;48.876;2.136;2023-02-28T07:40:37;102639.50;;;-0.41;74.26
61086;BME280;46967;48.876;2.136;2023-02-28T07:43:03;102652.59;;;-0.33;73.84
61086;BME280;46967;48.876;2.136;2023-02-28T07:45:29;102644.53;;;-0.23;73.54
61086;BME280;46967;48.876;2.136;2023-02-28T07:47:56;102649.25;;;-0.12;73.43
61086;BME280;46967;48.876;2.136;2023-02-28T07:50:22;102652.84;;;-0.07;73.32
61086;BME280;46967;48.876;2.136;2023-02-28T07:52:48;102651.03;;;-0.10;73.50
61086;BME280;46967;48.876;2.136;2023-02-28T07:55:13;102648.56;;;-0.08;73.40
61086;BME280;46967;48.876;2.136;2023-02-28T07:57:40;102640.38;;;-0.01;73.13
61086;BME280;46967;48.876;2.136;2023-02-28T08:00:08;102644.13;;;0.07;73.17
61086;BME280;46967;48.876;2.136;2023-02-28T08:02:37;102652.50;;;0.05;72.85
61086;BME280;46967;48.876;2.136;2023-02-28T08:05:03;102655.38;;;0.12;73.00
61086;BME280;46967;48.876;2.136;2023-02-28T08:07:29;102651.59;;;0.24;72.62
61086;BME280;46967;48.876;2.136;2023-02-28T08:09:54;102656.50;;;0.19;72.59
61086;BME280;46967;48.876;2.136;2023-02-28T08:12:19;102651.47;;;0.21;72.49
61086;BME280;46967;48.876;2.136;2023-02-28T08:14:45;102654.03;;;0.21;72.75
61086;BME280;46967;48.876;2.136;2023-02-28T08:17:11;102649.25;;;0.28;72.66
61086;BME280;46967;48.876;2.136;2023-02-28T08:19:36;102656.81;;;0.46;72.21
61086;BME280;46967;48.876;2.136;2023-02-28T08:22:01;102650.22;;;0.51;72.27
61086;BME280;46967;48.876;2.136;2023-02-28T08:24:27;102652.84;;;0.53;71.93
61086;BME280;46967;48.876;2.136;2023-02-28T08:26:52;102649.16;;;0.67;70.98
61086;BME280;46967;48.876;2.136;2023-02-28T08:29:17;102661.47;;;0.78;70.54
61086;BME280;46967;48.876;2.136;2023-02-28T08:31:43;102653.94;;;0.81;70.65
61086;BME280;46967;48.876;2.136;2023-02-28T08:34:11;102648.22;;;0.86;69.95
61086;BME280;46967;48.876;2.136;2023-02-28T08:36:37;102651.81;;;0.92;69.46
61086;BME280;46967;48.876;2.136;2023-02-28T08:39:03;102649.19;;;1.11;69.48
61086;BME280;46967;48.876;2.136;2023-02-28T08:41:28;102652.19;;;1.23;68.80
61086;BME280;46967;48.876;2.136;2023-02-28T08:43:54;102651.69;;;1.32;68.29
61086;BME280;46967;48.876;2.136;2023-02-28T08:46:20;102653.81;;;1.44;67.66
61086;BME280;46967;48.876;2.136;2023-02-28T08:48:45;102657.84;;;1.37;67.17
61086;BME280;46967;48.876;2.136;2023-02-28T08:51:14;102650.75;;;1.30;67.33
61086;BME280;46967;48.876;2.136;2023-02-28T08:53:41;102657.28;;;1.44;66.62
61086;BME280;46967;48.876;2.136;2023-02-28T08:56:09;102655.47;;;1.66;66.22
61086;BME280;46967;48.876;2.136;2023-02-28T08:58:35;102650.31;;;1.65;65.51
61086;BME280;46967;48.876;2.136;2023-02-28T09:01:07;102645.34;;;1.69;65.39
61086;BME280;46967;48.876;2.136;2023-02-28T09:03:32;102656.84;;;1.80;64.67
61086;BME280;46967;48.876;2.136;2023-02-28T09:05:59;102653.66;;;1.86;64.11
61086;BME280;46967;48.876;2.136;2023-02-28T09:08:28;102645.97;;;1.86;63.76
61086;BME280;46967;48.876;2.136;2023-02-28T09:10:54;102650.25;;;2.11;64.11
61086;BME280;46967;48.876;2.136;2023-02-28T09:13:22;102651.31;;;1.92;63.07
61086;BME280;46967;48.876;2.136;2023-02-28T09:15:48;102653.19;;;1.98;63.39
61086;BME280;46967;48.876;2.136;2023-02-28T09:18:14;102655.75;;;2.22;63.99
61086;BME280;46967;48.876;2.136;2023-02-28T09:20:41;102654.94;;;2.23;61.98
61086;BME280;46967;48.876;2.136;2023-02-28T09:23:07;102667.72;;;2.23;62.00
61086;BME280;46967;48.876;2.136;2023-02-28T09:25:33;102665.00;;;2.43;61.30
61086;BME280;46967;48.876;2.136;2023-02-28T09:27:59;102660.09;;;2.50;61.58
61086;BME280;46967;48.876;2.136;2023-02-28T09:30:24;102649.44;;;2.64;60.43
61086;BME280;46967;48.876;2.136;2023-02-28T09:32:49;102659.13;;;2.72;60.66
61086;BME280;46967;48.876;2.136;2023-02-28T09:35:22;102651.28;;;2.68;59.55
61086;BME280;46967;48.876;2.136;2023-02-28T09:37:52;102659.47;;;2.83;58.77
61086;BME280;46967;48.876;2.136;2023-02-28T09:40:19;102659.81;;;2.94;58.02
61086;BME280;46967;48.876;2.136;2023-02-28T09:42:47;102651.50;;;3.03;58.23
61086;BME280;46967;48.876;2.136;2023-02-28T09:45:37;102655.34;;;3.16;57.78
61086;BME280;46967;48.876;2.136;2023-02-28T09:48:16;102647.84;;;3.23;59.02
61086;BME280;46967;48.876;2.136;2023-02-28T09:50:48;102652.63;;;3.40;58.48
61086;BME280;46967;48.876;2.136;2023-02-28T09:55:58;102642.63;;;3.79;57.64
61086;BME280;46967;48.876;2.136;2023-02-28T09:58:39;102644.03;;;3.68;57.35
61086;BME280;46967;48.876;2.136;2023-02-28T10:01:19;102625.25;;;3.71;57.58
61086;BME280;46967;48.876;2.136;2023-02-28T10:03:54;102628.84;;;3.76;57.31
61086;BME280;46967;48.876;2.136;2023-02-28T10:06:25;102621.13;;;3.76;56.88
61086;BME280;46967;48.876;2.136;2023-02-28T10:11:27;102621.88;;;3.72;56.61
61086;BME280;46967;48.876;2.136;2023-02-28T10:13:54;102612.91;;;3.89;56.37
61086;BME280;46967;48.876;2.136;2023-02-28T10:16:34;102622.41;;;3.92;56.59
61086;BME280;46967;48.876;2.136;2023-02-28T10:19:06;102621.91;;;4.05;56.77
61086;BME280;46967;48.876;2.136;2023-02-28T10:21:54;102619.28;;;4.37;56.27
61086;BME280;46967;48.876;2.136;2023-02-28T10:27:17;102607.84;;;4.61;53.65
61086;BME280;46967;48.876;2.136;2023-02-28T10:29:48;102609.84;;;4.38;54.38
61086;BME280;46967;48.876;2.136;2023-02-28T10:32:18;102608.06;;;4.70;54.77
61086;BME280;46967;48.876;2.136;2023-02-28T10:34:44;102614.47;;;4.87;53.73
61086;BME280;46967;48.876;2.136;2023-02-28T10:37:15;102601.66;;;4.89;55.22
61086;BME280;46967;48.876;2.136;2023-02-28T10:39:43;102606.63;;;4.81;54.90
61086;BME280;46967;48.876;2.136;2023-02-28T10:45:05;102578.94;;;4.71;52.47
61086;BME280;46967;48.876;2.136;2023-02-28T10:47:33;102582.53;;;4.78;51.94
61086;BME280;46967;48.876;2.136;2023-02-28T10:49:59;102593.81;;;4.84;51.79
61086;BME280;46967;48.876;2.136;2023-02-28T10:52:51;102588.34;;;4.70;51.79
61086;BME280;46967;48.876;2.136;2023-02-28T10:55:22;102584.06;;;4.71;51.58
61086;BME280;46967;48.876;2.136;2023-02-28T10:57:48;102582.34;;;4.70;50.30
61086;BME280;46967;48.876;2.136;2023-02-28T11:00:20;102575.25;;;4.60;51.59
61086;BME280;46967;48.876;2.136;2023-02-28T11:02:47;102573.09;;;4.78;48.33
61086;BME280;46967;48.876;2.136;2023-02-28T11:05:32;102574.84;;;5.19;47.41
61086;BME280;46967;48.876;2.136;2023-02-28T11:08:18;102562.97;;;5.25;47.43
61086;BME280;46967;48.876;2.136;2023-02-28T11:10:46;102562.97;;;5.25;45.57
61086;BME280;46967;48.876;2.136;2023-02-28T11:13:20;102553.81;;;4.99;46.67
61086;BME280;46967;48.876;2.136;2023-02-28T11:15:53;102558.22;;;5.03;45.99
61086;BME280;46967;48.876;2.136;2023-02-28T11:18:28;102558.19;;;5.01;47.29
61086;BME280;46967;48.876;2.136;2023-02-28T11:20:55;102555.59;;;5.01;46.33
61086;BME280;46967;48.876;2.136;2023-02-28T11:23:25;102553.72;;;4.94;45.12
61086;BME280;46967;48.876;2.136;2023-02-28T11:25:55;102547.72;;;4.94;43.63
61086;BME280;46967;48.876;2.136;2023-02-28T11:31:06;102549.16;;;5.68;44.48
61086;BME280;46967;48.876;2.136;2023-02-28T11:33:43;102544.34;;;5.40;42.52
61086;BME280;46967;48.876;2.136;2023-02-28T11:36:20;102534.00;;;5.37;43.18
61086;BME280;46967;48.876;2.136;2023-02-28T11:38:47;102541.44;;;5.68;43.66
61086;BME280;46967;48.876;2.136;2023-02-28T11:46:38;102539.75;;;4.83;44.25
61086;BME280;46967;48.876;2.136;2023-02-28T11:52:02;102536.63;;;4.22;45.52
61086;BME280;46967;48.876;2.136;2023-02-28T11:55:07;102523.94;;;3.93;46.11
61086;BME280;46967;48.876;2.136;2023-02-28T12:03:32;102516.53;;;4.80;45.40
61086;BME280;46967;48.876;2.136;2023-02-28T12:06:24;102507.69;;;5.08;45.58
61086;BME280;46967;48.876;2.136;2023-02-28T12:09:03;102507.09;;;5.21;44.65
61086;BME280;46967;48.876;2.136;2023-02-28T12:19:48;102496.63;;;4.33;44.63
61086;BME280;46967;48.876;2.136;2023-02-28T12:25:03;102489.78;;;4.32;45.36
61086;BME280;46967;48.876;2.136;2023-02-28T12:27:39;102475.88;;;4.62;45.18
61086;BME280;46967;48.876;2.136;2023-02-28T12:30:19;102473.56;;;4.76;44.12
61086;BME280;46967;48.876;2.136;2023-02-28T12:32:54;102469.28;;;4.75;44.58
61086;BME280;46967;48.876;2.136;2023-02-28T12:35:28;102464.19;;;5.20;44.51
61086;BME280;46967;48.876;2.136;2023-02-28T12:38:12;102455.88;;;5.86;43.64
61086;BME280;46967;48.876;2.136;2023-02-28T12:43:29;102454.44;;;6.03;42.75
61086;BME280;46967;48.876;2.136;2023-02-28T12:46:00;102442.13;;;6.43;41.61
61086;BME280;46967;48.876;2.136;2023-02-28T12:50:51;102445.41;;;6.30;41.65
61086;BME280;46967;48.876;2.136;2023-02-28T12:54:10;102435.63;;;6.09;41.42
61086;BME280;46967;48.876;2.136;2023-02-28T13:01:57;102426.06;;;6.00;42.23
61086;BME280;46967;48.876;2.136;2023-02-28T13:04:45;102427.34;;;5.75;41.49
61086;BME280;46967;48.876;2.136;2023-02-28T13:09:57;102422.03;;;5.17;42.40
61086;BME280;46967;48.876;2.136;2023-02-28T13:12:25;102431.34;;;5.08;43.19
61086;BME280;46967;48.876;2.136;2023-02-28T13:17:28;102422.28;;;5.81;41.53
61086;BME280;46967;48.876;2.136;2023-02-28T13:22:46;102414.13;;;6.07;41.70
61086;BME280;46967;48.876;2.136;2023-02-28T13:27:46;102405.19;;;5.86;42.00
61086;BME280;46967;48.876;2.136;2023-02-28T13:33:24;102405.41;;;6.64;40.89
61086;BME280;46967;48.876;2.136;2023-02-28T13:44:10;102407.41;;;5.61;42.11
61086;BME280;46967;48.876;2.136;2023-02-28T13:51:49;102396.56;;;5.84;41.99
61086;BME280;46967;48.876;2.136;2023-02-28T13:59:38;102389.59;;;6.37;39.30
61086;BME280;46967;48.876;2.136;2023-02-28T14:05:21;102401.69;;;6.42;39.80
61086;BME280;46967;48.876;2.136;2023-02-28T14:07:53;102395.91;;;6.60;38.99
61086;BME280;46967;48.876;2.136;2023-02-28T14:10:28;102379.00;;;6.85;39.48
61086;BME280;46967;48.876;2.136;2023-02-28T14:12:58;102380.16;;;7.14;37.96
61086;BME280;46967;48.876;2.136;2023-02-28T14:15:43;102379.53;;;7.39;36.60
61086;BME280;46967;48.876;2.136;2023-02-28T14:18:20;102382.88;;;7.32;37.84
61086;BME280;46967;48.876;2.136;2023-02-28T14:20:47;102386.00;;;6.97;38.02
61086;BME280;46967;48.876;2.136;2023-02-28T14:23:25;102384.47;;;7.16;38.74
61086;BME280;46967;48.876;2.136;2023-02-28T14:31:24;102385.34;;;7.20;37.87
61086;BME280;46967;48.876;2.136;2023-02-28T14:34:13;102385.66;;;6.65;37.20
61086;BME280;46967;48.876;2.136;2023-02-28T14:36:42;102388.72;;;6.33;37.57
61086;BME280;46967;48.876;2.136;2023-02-28T14:39:22;102391.03;;;6.14;37.87
61086;BME280;46967;48.876;2.136;2023-02-28T14:41:50;102390.34;;;6.29;38.95
61086;BME280;46967;48.876;2.136;2023-02-28T14:44:22;102381.09;;;6.44;38.08
61086;BME280;46967;48.876;2.136;2023-02-28T14:46:50;102386.44;;;6.59;38.54
61086;BME280;46967;48.876;2.136;2023-02-28T14:49:21;102374.81;;;6.95;37.92
61086;BME280;46967;48.876;2.136;2023-02-28T14:51:50;102372.50;;;7.26;37.62
61086;BME280;46967;48.876;2.136;2023-02-28T14:54:26;102374.16;;;7.18;36.57
61086;BME280;46967;48.876;2.136;2023-02-28T14:56:52;102383.72;;;7.27;36.61
61086;BME280;46967;48.876;2.136;2023-02-28T14:59:24;102372.88;;;6.79;36.98
61086;BME280;46967;48.876;2.136;2023-02-28T15:01:50;102372.28;;;6.28;37.91
61086;BME280;46967;48.876;2.136;2023-02-28T15:04:26;102387.06;;;5.81;39.19
61086;BME280;46967;48.876;2.136;2023-02-28T15:07:12;102378.81;;;6.00;39.62
61086;BME280;46967;48.876;2.136;2023-02-28T15:09:38;102372.69;;;6.59;38.17
61086;BME280;46967;48.876;2.136;2023-02-28T15:12:03;102373.16;;;7.02;38.71
61086;BME280;46967;48.876;2.136;2023-02-28T15:14:29;102372.75;;;6.63;38.68
61086;BME280;46967;48.876;2.136;2023-02-28T15:16:58;102367.22;;;7.15;37.01